createdAt,value
2023-01-25T00:01:06.315Z,57.30
2023-01-25T00:03:32.988Z,57.20
2023-01-25T00:06:01.377Z,57.30
2023-01-25T00:08:28.089Z,57.20
2023-01-25T00:10:56.292Z,57.30
2023-01-25T00:13:24.122Z,57.30
2023-01-25T00:15:50.733Z,57.30
2023-01-25T00:18:17.366Z,57.30
2023-01-25T00:20:43.958Z,57.30
2023-01-25T00:23:10.561Z,57.30
2023-01-25T00:25:37.151Z,57.30
2023-01-25T00:28:03.805Z,57.30
2023-01-25T00:30:30.381Z,57.30
2023-01-25T00:33:16.644Z,57.30
2023-01-25T00:35:44.588Z,57.30
2023-01-25T00:38:31.063Z,57.30
2023-01-25T00:40:57.941Z,57.40
2023-01-25T00:43:24.615Z,57.40
2023-01-25T00:45:51.302Z,57.40
2023-01-25T00:48:17.930Z,57.40
2023-01-25T00:50:44.504Z,57.40
2023-01-25T00:53:11.101Z,57.40
2023-01-25T00:55:37.684Z,57.40
2023-01-25T00:58:04.290Z,57.40
2023-01-25T01:00:30.872Z,57.30
2023-01-25T01:02:57.486Z,57.40
2023-01-25T01:05:24.061Z,57.40
2023-01-25T01:07:50.677Z,58.00
2023-01-25T01:10:17.341Z,57.30
2023-01-25T01:12:43.953Z,57.30
2023-01-25T01:15:10.707Z,57.30
2023-01-25T01:17:37.472Z,57.30
2023-01-25T01:20:04.360Z,57.30
2023-01-25T01:22:30.950Z,57.30
2023-01-25T01:24:57.540Z,57.40
2023-01-25T01:27:24.149Z,57.40
2023-01-25T01:29:50.749Z,57.40
2023-01-25T01:32:17.437Z,57.40
2023-01-25T01:34:44.533Z,57.40
2023-01-25T01:37:11.118Z,57.40
2023-01-25T01:39:37.720Z,57.40
2023-01-25T01:42:04.562Z,57.50
2023-01-25T01:44:52.061Z,57.40
2023-01-25T01:47:39.631Z,57.50
2023-01-25T01:50:14.731Z,57.50
2023-01-25T01:52:41.311Z,57.50
2023-01-25T01:55:09.370Z,57.50
2023-01-25T01:57:44.637Z,57.50
2023-01-25T02:00:18.523Z,57.40
2023-01-25T02:02:45.412Z,57.50
2023-01-25T02:05:22.911Z,57.50
2023-01-25T02:07:49.711Z,57.50
2023-01-25T02:10:16.379Z,57.50
2023-01-25T02:12:42.971Z,57.50
2023-01-25T02:15:10.535Z,57.50
2023-01-25T02:17:38.550Z,57.50
2023-01-25T02:20:23.525Z,57.50
2023-01-25T02:22:53.259Z,57.60
2023-01-25T02:25:19.921Z,57.60
2023-01-25T02:27:51.830Z,57.60
2023-01-25T02:30:18.468Z,57.60
2023-01-25T02:32:45.152Z,57.60
2023-01-25T02:35:19.447Z,57.60
2023-01-25T02:37:46.284Z,57.60
2023-01-25T02:40:12.983Z,57.50
2023-01-25T02:42:42.204Z,57.60
2023-01-25T02:45:10.421Z,57.60
2023-01-25T02:47:37.056Z,57.60
2023-01-25T02:50:03.826Z,57.60
2023-01-25T02:52:30.478Z,57.60
2023-01-25T02:54:57.137Z,57.60
2023-01-25T02:57:23.733Z,58.20
2023-01-25T02:59:50.324Z,57.50
2023-01-25T03:02:16.916Z,57.60
2023-01-25T03:04:43.526Z,57.50
2023-01-25T03:07:10.145Z,57.60
2023-01-25T03:09:36.753Z,57.60
2023-01-25T03:12:03.358Z,57.60
2023-01-25T03:14:30.003Z,57.60
2023-01-25T03:16:56.703Z,57.60
2023-01-25T03:19:23.309Z,57.60
2023-01-25T03:21:49.902Z,57.60
2023-01-25T03:24:16.547Z,57.60
2023-01-25T03:27:01.824Z,57.60
2023-01-25T03:29:28.413Z,57.60
2023-01-25T03:31:55.171Z,57.60
2023-01-25T03:34:21.906Z,57.60
2023-01-25T03:36:48.506Z,57.60
2023-01-25T03:39:15.128Z,57.60
2023-01-25T03:41:41.725Z,57.80
2023-01-25T03:44:11.323Z,57.60
2023-01-25T03:46:38.850Z,57.60
2023-01-25T03:49:05.458Z,57.60
2023-01-25T03:51:33.052Z,57.60
2023-01-25T03:53:59.670Z,57.70
2023-01-25T03:56:26.298Z,57.60
2023-01-25T03:58:52.876Z,57.70
2023-01-25T04:01:19.552Z,57.60
2023-01-25T04:03:46.212Z,57.70
2023-01-25T04:06:12.802Z,57.70
2023-01-25T04:08:39.437Z,57.70
2023-01-25T04:11:07.656Z,57.70
2023-01-25T04:13:36.988Z,57.70
2023-01-25T04:16:07.317Z,57.70
2023-01-25T04:18:33.945Z,57.80
2023-01-25T04:21:00.529Z,57.80
2023-01-25T04:23:27.188Z,57.70
2023-01-25T04:26:00.971Z,57.80
2023-01-25T04:28:27.664Z,57.80
2023-01-25T04:30:54.937Z,57.80
2023-01-25T04:33:21.607Z,57.80
2023-01-25T04:35:48.218Z,57.70
2023-01-25T04:38:14.814Z,57.70
2023-01-25T04:40:42.074Z,57.70
2023-01-25T04:43:08.807Z,57.70
2023-01-25T04:45:36.383Z,57.70
2023-01-25T04:48:04.053Z,57.70
2023-01-25T04:50:30.691Z,57.80
2023-01-25T04:52:57.279Z,57.80
2023-01-25T04:55:23.890Z,57.80
2023-01-25T04:57:50.904Z,57.80
2023-01-25T05:00:18.357Z,57.80
2023-01-25T05:02:45.025Z,57.80
2023-01-25T05:05:11.991Z,57.80
2023-01-25T05:07:39.039Z,57.80
2023-01-25T05:10:06.172Z,57.80
2023-01-25T05:12:32.789Z,57.80
2023-01-25T05:14:59.378Z,57.10
2023-01-25T05:17:25.997Z,55.60
2023-01-25T05:19:52.589Z,54.20
2023-01-25T05:22:20.755Z,38.20
2023-01-25T05:24:47.536Z,34.20
2023-01-25T05:27:18.889Z,37.40
2023-01-25T05:29:45.850Z,40.30
2023-01-25T05:32:14.160Z,43.00
2023-01-25T05:34:40.991Z,45.30
2023-01-25T05:37:08.759Z,45.80
2023-01-25T05:39:35.347Z,46.80
2023-01-25T05:42:01.946Z,47.40
2023-01-25T05:44:28.533Z,47.90
2023-01-25T05:46:55.130Z,48.40
2023-01-25T05:49:21.731Z,48.70
2023-01-25T05:51:48.994Z,49.40
